Time;durP1;ratioP1;P1;durP2;ratioP2;P2;SDS_P1;SDS_P2;PMS_P1;PMS_P2;Temp;Humidity;BMP_temperature;BMP_pressure;BME280_temperature;BME280_humidity;BME280_pressure;Samples;Min_cycle;Max_cycle;Signal;HPM_P1;HPM_P2
2023/07/05 05:47:37;;;;;;;1999.90;999.90;;;16.40;99.90;;;;;;5060752;23;20171;-73
2023/07/05 05:50:03;;;;;;;1999.90;999.90;;;16.40;99.90;;;;;;4963737;28;20118;-72
2023/07/05 05:52:29;;;;;;;1999.90;999.90;;;16.40;99.90;;;;;;4948533;29;20508;-69
2023/07/05 05:54:54;;;;;;;1999.90;999.90;;;16.40;99.90;;;;;;4953943;29;20154;-69
2023/07/05 05:57:20;;;;;;;1999.90;999.90;;;16.50;99.90;;;;;;4953902;29;20485;-69
2023/07/05 05:59:45;;;;;;;1999.90;999.90;;;16.60;99.90;;;;;;4957122;28;20023;-69
2023/07/05 06:02:11;;;;;;;1999.90;999.90;;;16.60;99.90;;;;;;4967150;28;20119;-70
2023/07/05 06:04:36;;;;;;;1999.90;999.90;;;16.60;99.90;;;;;;4954070;28;20102;-70
2023/07/05 06:07:02;;;;;;;1999.90;999.90;;;16.60;99.90;;;;;;4958753;28;20039;-70
2023/07/05 06:09:28;;;;;;;1999.90;999.90;;;16.70;99.90;;;;;;4953919;29;20015;-69
2023/07/05 06:11:56;;;;;;;1999.90;999.90;;;16.90;99.90;;;;;;4949716;28;20038;-69
2023/07/05 06:14:22;;;;;;;1999.90;999.90;;;17.00;99.90;;;;;;4950741;28;20520;-70
2023/07/05 06:16:47;;;;;;;1999.90;999.90;;;17.10;99.90;;;;;;4938644;28;20062;-70
2023/07/05 06:19:13;;;;;;;1999.90;999.90;;;17.20;99.90;;;;;;4943562;29;20082;-70
2023/07/05 06:21:39;;;;;;;1999.90;999.90;;;17.20;99.90;;;;;;4951770;29;20081;-69
2023/07/05 06:24:04;;;;;;;1999.90;999.90;;;17.20;99.90;;;;;;4959634;28;20020;-70
2023/07/05 06:26:30;;;;;;;1999.90;999.90;;;17.20;99.90;;;;;;4959508;28;20489;-70
2023/07/05 06:28:55;;;;;;;1999.90;999.90;;;17.00;99.90;;;;;;4953119;28;20114;-70
2023/07/05 06:31:24;;;;;;;1999.90;999.90;;;16.90;99.90;;;;;;4950515;29;20039;-70
2023/07/05 06:33:50;;;;;;;1999.90;999.90;;;16.90;99.90;;;;;;4953350;28;20058;-69
2023/07/05 06:36:15;;;;;;;1999.90;999.90;;;16.90;99.90;;;;;;4951607;28;20142;-69
2023/07/05 06:38:41;;;;;;;1999.90;999.90;;;17.00;99.90;;;;;;4943633;28;20030;-69
2023/07/05 06:41:07;;;;;;;1999.90;999.90;;;16.90;99.90;;;;;;4965696;28;20122;-70
2023/07/05 06:43:32;;;;;;;1999.90;999.90;;;16.80;99.90;;;;;;4951685;29;20479;-69
2023/07/05 06:45:58;;;;;;;1999.90;999.90;;;16.90;99.90;;;;;;4952822;28;20047;-69
2023/07/05 06:48:24;;;;;;;1999.90;999.90;;;16.90;99.90;;;;;;4954807;28;20417;-69
2023/07/05 06:50:54;;;;;;;1999.90;999.90;;;17.00;99.90;;;;;;4955729;28;20063;-70
2023/07/05 06:53:20;;;;;;;1999.90;999.90;;;17.00;99.90;;;;;;4953454;28;20078;-70
2023/07/05 06:55:49;;;;;;;1999.90;999.90;;;17.00;99.90;;;;;;4966662;28;20122;-69
2023/07/05 06:58:17;;;;;;;1999.90;999.90;;;17.10;99.90;;;;;;4958984;28;20039;-70
2023/07/05 07:00:45;;;;;;;1999.90;999.90;;;17.20;99.90;;;;;;4955295;29;20496;-69
2023/07/05 07:03:10;;;;;;;1999.90;999.90;;;17.30;99.90;;;;;;4956095;28;20117;-69
2023/07/05 07:05:36;;;;;;;1999.90;999.90;;;17.30;99.90;;;;;;4958493;28;20117;-69
2023/07/05 07:08:05;;;;;;;1999.90;999.90;;;17.30;99.90;;;;;;4951087;28;20035;-70
2023/07/05 07:10:34;;;;;;;1999.90;999.90;;;17.50;99.90;;;;;;4954633;28;20374;-69
2023/07/05 07:12:59;;;;;;;1999.90;999.90;;;17.70;99.90;;;;;;4961662;28;20028;-69
2023/07/05 07:15:25;;;;;;;1999.90;999.90;;;17.70;99.90;;;;;;4952966;29;20050;-69
2023/07/05 07:17:51;;;;;;;1999.90;999.90;;;17.70;99.90;;;;;;4953014;28;20173;-69
2023/07/05 07:20:16;;;;;;;1999.90;999.90;;;17.80;99.90;;;;;;4957171;28;20039;-70
2023/07/05 07:22:43;;;;;;;1999.90;999.90;;;17.90;99.90;;;;;;4936249;28;20027;-70
2023/07/05 07:25:09;;;;;;;1999.90;999.90;;;18.10;99.90;;;;;;4944346;29;20035;-69
2023/07/05 07:27:34;;;;;;;1999.90;999.90;;;18.30;99.90;;;;;;4936637;29;20047;-69
2023/07/05 07:30:00;;;;;;;1999.90;999.90;;;18.40;99.90;;;;;;4939071;29;20035;-69
2023/07/05 07:32:25;;;;;;;1999.90;999.90;;;18.50;99.90;;;;;;4958243;28;20031;-70
2023/07/05 07:34:55;;;;;;;1999.90;999.90;;;18.60;99.90;;;;;;4937932;29;20134;-69
2023/07/05 07:37:21;;;;;;;1999.90;999.90;;;18.60;99.90;;;;;;4935443;29;20039;-69
2023/07/05 07:39:46;;;;;;;1999.90;999.90;;;19.00;99.90;;;;;;4964546;28;20094;-69
2023/07/05 07:42:12;;;;;;;1999.90;999.90;;;19.30;99.90;;;;;;4936752;29;20042;-69
2023/07/05 07:44:38;;;;;;;1999.90;999.90;;;19.70;99.90;;;;;;4936574;28;20641;-70
2023/07/05 07:47:04;;;;;;;1999.90;999.90;;;20.00;99.90;;;;;;4953053;28;20055;-70
2023/07/05 07:49:30;;;;;;;1999.90;999.90;;;20.10;99.90;;;;;;4952180;29;20042;-69
2023/07/05 07:51:55;;;;;;;1999.90;999.90;;;20.30;99.90;;;;;;4958376;28;20035;-70
2023/07/05 07:54:26;;;;;;;1999.90;999.90;;;20.30;99.90;;;;;;4952785;29;20031;-70
2023/07/05 07:56:55;;;;;;;1999.90;999.90;;;20.80;99.90;;;;;;4934965;29;20039;-70
2023/07/05 07:59:21;;;;;;;1999.90;999.90;;;23.20;99.90;;;;;;4952426;29;20024;-70
2023/07/05 08:01:47;;;;;;;1999.90;999.90;;;24.80;99.90;;;;;;4951930;29;20031;-71
2023/07/05 08:04:14;;;;;;;1999.90;999.90;;;25.30;99.90;;;;;;4957785;28;20386;-70
2023/07/05 08:06:45;;;;;;;1999.90;999.90;;;25.80;99.90;;;;;;4952613;28;20031;-71
2023/07/05 08:09:14;;;;;;;1999.90;999.90;;;26.00;99.90;;;;;;4953294;29;20398;-71
2023/07/05 08:11:40;;;;;;;1999.90;999.90;;;25.10;99.90;;;;;;4953014;28;20087;-70
2023/07/05 08:14:06;;;;;;;1999.90;999.90;;;25.00;99.90;;;;;;4945922;29;20035;-71
2023/07/05 08:16:32;;;;;;;1999.90;999.90;;;25.60;99.90;;;;;;4949214;29;20031;-72
2023/07/05 08:18:57;;;;;;;1999.90;999.90;;;26.00;99.90;;;;;;4937533;29;20524;-72
2023/07/05 08:21:24;;;;;;;1999.90;999.90;;;26.50;99.90;;;;;;4952186;28;20075;-72
2023/07/05 08:23:49;;;;;;;1999.90;999.90;;;26.60;99.90;;;;;;4958303;28;20031;-73
2023/07/05 08:26:15;;;;;;;1999.90;999.90;;;27.00;99.90;;;;;;4952595;29;20027;-73
2023/07/05 08:28:41;;;;;;;1999.90;999.90;;;28.30;99.20;;;;;;4952493;29;20493;-72
2023/07/05 08:31:08;;;;;;;1999.90;999.90;;;28.40;98.30;;;;;;4931226;29;20039;-72
2023/07/05 08:33:36;;;;;;;1999.90;999.90;;;28.80;97.70;;;;;;4952684;28;20096;-73
2023/07/05 08:36:14;;;;;;;1999.90;999.90;;;28.90;99.90;;;;;;4953822;28;20031;-72
2023/07/05 08:38:42;;;;;;;1999.90;999.90;;;29.10;99.60;;;;;;4952319;28;20106;-73
2023/07/05 08:41:16;;;;;;;1999.90;999.90;;;29.30;96.50;;;;;;4946502;28;20046;-72
2023/07/05 08:43:50;;;;;;;1999.90;999.90;;;29.40;97.20;;;;;;4936028;29;20031;-72
2023/07/05 08:46:17;;;;;;;1999.90;999.90;;;29.80;96.10;;;;;;4952154;28;20055;-72
2023/07/05 08:48:45;;;;;;;1999.90;999.90;;;29.90;98.10;;;;;;4951891;28;20037;-72
2023/07/05 08:51:13;;;;;;;1999.90;999.90;;;30.10;96.70;;;;;;4951520;29;20035;-73
2023/07/05 08:53:47;;;;;;;1999.90;999.90;;;30.10;95.10;;;;;;4951397;29;20106;-73
2023/07/05 08:56:28;;;;;;;1999.90;999.90;;;30.20;95.60;;;;;;4951618;29;20113;-73
2023/07/05 08:59:20;;;;;;;1999.90;999.90;;;30.30;94.50;;;;;;4954013;28;20809;-72
2023/07/05 09:01:49;;;;;;;1999.90;999.90;;;30.50;93.70;;;;;;4954837;28;20049;-72
2023/07/05 09:04:32;;;;;;;1999.90;999.90;;;30.80;92.00;;;;;;4952503;28;20043;-73
2023/07/05 09:07:18;;;;;;;1999.90;999.90;;;30.90;92.60;;;;;;4949623;29;20024;-71
2023/07/05 09:10:19;;;;;;;1999.90;999.90;;;30.40;93.00;;;;;;4939588;29;20517;-72
2023/07/05 09:13:15;;;;;;;1999.90;999.90;;;30.70;92.90;;;;;;4936246;29;20505;-72
2023/07/05 09:15:54;;;;;;;1999.90;999.90;;;30.90;91.90;;;;;;4950527;29;20430;-73
2023/07/05 09:18:49;;;;;;;1999.90;999.90;;;30.70;94.30;;;;;;4951712;29;20560;-73
2023/07/05 09:21:33;;;;;;;1999.90;999.90;;;30.90;92.90;;;;;;4943162;29;20035;-72
2023/07/05 09:24:20;;;;;;;1999.90;999.90;;;31.10;87.60;;;;;;4949043;28;20039;-73
2023/07/05 09:26:57;;;;;;;1999.90;999.90;;;31.10;88.90;;;;;;4934217;29;20547;-72
2023/07/05 09:29:31;;;;;;;1999.90;999.90;;;31.40;89.80;;;;;;4934337;29;20035;-73
2023/07/05 09:32:02;;;;;;;1999.90;999.90;;;31.70;89.50;;;;;;4951045;29;20078;-73
2023/07/05 09:34:36;;;;;;;1999.90;999.90;;;31.60;84.00;;;;;;4953170;28;20027;-72
2023/07/05 09:37:22;;;;;;;1999.90;999.90;;;30.90;85.00;;;;;;4954102;28;20031;-73
2023/07/05 09:40:04;;;;;;;1999.90;999.90;;;31.00;84.00;;;;;;4954642;28;20034;-72
2023/07/05 09:42:56;;;;;;;1999.90;999.90;;;31.40;82.50;;;;;;4950034;29;20501;-73
2023/07/05 09:45:21;;;;;;;1999.90;999.90;;;31.70;82.20;;;;;;4943177;28;20043;-72
2023/07/05 09:47:50;;;;;;;1999.90;999.90;;;32.10;84.20;;;;;;4950749;28;20090;-72
2023/07/05 09:50:18;;;;;;;1999.90;999.90;;;32.00;83.60;;;;;;4950937;29;20063;-73
2023/07/05 09:52:50;;;;;;;1999.90;999.90;;;31.90;85.10;;;;;;4950397;28;20026;-72
2023/07/05 09:55:18;;;;;;;1999.90;999.90;;;32.50;85.00;;;;;;4950449;29;20083;-73
2023/07/05 09:57:45;;;;;;;1999.90;999.90;;;32.70;83.40;;;;;;4954903;28;20098;-72
2023/07/05 10:00:35;;;;;;;1999.90;999.90;;;32.10;83.20;;;;;;4951066;29;20038;-72
2023/07/05 10:03:12;;;;;;;1999.90;999.90;;;30.80;85.40;;;;;;4946807;28;20073;-72
2023/07/05 10:05:38;;;;;;;1999.90;999.90;;;31.90;86.80;;;;;;4948974;28;20321;-71
2023/07/05 10:08:16;;;;;;;1999.90;999.90;;;31.70;85.50;;;;;;4932628;29;20465;-72
2023/07/05 10:10:43;;;;;;;1999.90;999.90;;;31.70;83.90;;;;;;4934232;29;20034;-72
2023/07/05 10:13:19;;;;;;;1999.90;999.90;;;30.80;84.10;;;;;;4953819;28;20478;-72
2023/07/05 10:15:50;;;;;;;1999.90;999.90;;;30.30;83.90;;;;;;4949300;29;20545;-72
2023/07/05 10:18:31;;;;;;;1999.90;999.90;;;30.90;83.50;;;;;;4950394;29;20046;-72
2023/07/05 10:21:00;;;;;;;1999.90;999.90;;;30.90;86.60;;;;;;4953193;28;20035;-72
2023/07/05 10:23:28;;;;;;;1999.90;999.90;;;31.10;84.90;;;;;;4941462;28;20053;-72
2023/07/05 10:25:56;;;;;;;1999.90;999.90;;;30.50;87.50;;;;;;4944016;29;20497;-73
2023/07/05 10:28:29;;;;;;;1999.90;999.90;;;31.00;85.50;;;;;;4954978;29;20566;-72
2023/07/05 10:30:57;;;;;;;1999.90;999.90;;;30.90;85.60;;;;;;4953359;28;20397;-72
2023/07/05 10:33:31;;;;;;;1999.90;999.90;;;31.40;87.10;;;;;;4936601;28;20068;-71
2023/07/05 10:36:10;;;;;;;1999.90;999.90;;;31.70;87.20;;;;;;4964650;28;20031;-72
2023/07/05 10:38:41;;;;;;;1999.90;999.90;;;31.90;87.80;;;;;;4955489;28;20043;-72
2023/07/05 10:41:21;;;;;;;1999.90;999.90;;;30.60;88.00;;;;;;4954921;28;20027;-71
2023/07/05 10:43:56;;;;;;;1999.90;999.90;;;30.30;90.40;;;;;;4960384;28;20162;-71
2023/07/05 10:46:24;;;;;;;1999.90;999.90;;;29.90;89.10;;;;;;4961584;28;20414;-70
2023/07/05 10:48:52;;;;;;;1999.90;999.90;;;30.20;90.60;;;;;;4947556;28;20426;-72
2023/07/05 10:51:23;;;;;;;1999.90;999.90;;;30.70;90.50;;;;;;4951785;28;20114;-71
2023/07/05 10:54:03;;;;;;;1999.90;999.90;;;30.80;89.60;;;;;;4947658;28;20046;-71
2023/07/05 10:56:34;;;;;;;1999.90;999.90;;;30.50;89.40;;;;;;4953019;28;20027;-71
2023/07/05 10:59:25;;;;;;;1999.90;999.90;;;30.20;86.90;;;;;;4960480;28;20045;-71
2023/07/05 11:02:21;;;;;;;1999.90;999.90;;;30.70;88.30;;;;;;4922813;28;20090;-72
2023/07/05 11:04:50;;;;;;;1999.90;999.90;;;29.60;84.60;;;;;;4939797;28;20045;-72
2023/07/05 11:07:17;;;;;;;1999.90;999.90;;;30.50;90.20;;;;;;4956403;28;20035;-71
2023/07/05 11:09:42;;;;;;;1999.90;999.90;;;30.00;87.30;;;;;;4937365;28;20035;-71
2023/07/05 11:12:27;;;;;;;1999.90;999.90;;;31.00;86.30;;;;;;4951646;28;20079;-72
2023/07/05 11:14:53;;;;;;;1999.90;999.90;;;30.30;88.40;;;;;;4952512;29;20031;-72
2023/07/05 11:17:40;;;;;;;1999.90;999.90;;;30.20;89.60;;;;;;4935088;28;20035;-71
2023/07/05 11:20:34;;;;;;;1999.90;999.90;;;29.70;88.30;;;;;;4936795;28;20124;-70
2023/07/05 11:22:59;;;;;;;1999.90;999.90;;;30.10;87.90;;;;;;4948757;28;20501;-70
2023/07/05 11:26:04;;;;;;;1999.90;999.90;;;29.20;87.00;;;;;;4959370;28;20038;-71
2023/07/05 11:28:29;;;;;;;1999.90;999.90;;;28.80;90.10;;;;;;4913927;29;20024;-73
2023/07/05 11:30:56;;;;;;;1999.90;999.90;;;29.30;90.80;;;;;;4909636;29;20047;-71
2023/07/05 11:33:22;;;;;;;1999.90;999.90;;;29.10;88.60;;;;;;4905022;29;20075;-72
2023/07/05 11:36:00;;;;;;;1999.90;999.90;;;29.20;86.90;;;;;;4914237;29;20206;-71
2023/07/05 11:38:44;;;;;;;1999.90;999.90;;;29.80;87.80;;;;;;4918107;29;20573;-73
2023/07/05 11:41:31;;;;;;;1999.90;999.90;;;29.30;87.10;;;;;;4914696;29;20043;-72
2023/07/05 11:44:23;;;;;;;1999.90;999.90;;;29.10;87.50;;;;;;4917133;29;20422;-71
2023/07/05 11:46:49;;;;;;;1999.90;999.90;;;28.50;88.30;;;;;;4921163;29;20106;-71
2023/07/05 11:49:27;;;;;;;1999.90;999.90;;;29.10;90.20;;;;;;4913821;29;20036;-72
2023/07/05 11:52:03;;;;;;;1999.90;999.90;;;29.30;88.40;;;;;;4910952;29;20065;-72
2023/07/05 11:54:38;;;;;;;1999.90;999.90;;;29.10;88.00;;;;;;4919193;29;20115;-71
2023/07/05 11:57:10;;;;;;;1999.90;999.90;;;29.00;87.90;;;;;;4918467;29;20147;-71
2023/07/05 11:59:42;;;;;;;1999.90;999.90;;;28.60;87.40;;;;;;4936913;29;20043;-71
2023/07/05 12:02:25;;;;;;;1999.90;999.90;;;28.50;89.10;;;;;;4957194;28;20115;-71
2023/07/05 12:04:54;;;;;;;1999.90;999.90;;;28.70;87.70;;;;;;4953931;28;20035;-71
2023/07/05 12:07:22;;;;;;;1999.90;999.90;;;28.40;87.60;;;;;;4954230;28;20347;-73
2023/07/05 12:09:48;;;;;;;1999.90;999.90;;;29.00;90.30;;;;;;4951639;28;20031;-71
2023/07/05 12:12:14;;;;;;;1999.90;999.90;;;29.10;90.30;;;;;;4955517;28;20059;-71
2023/07/05 12:14:42;;;;;;;1999.90;999.90;;;28.70;90.10;;;;;;4949937;28;20490;-72
2023/07/05 12:17:14;;;;;;;1999.90;999.90;;;28.60;88.80;;;;;;4957153;28;20170;-73
2023/07/05 12:19:40;;;;;;;1999.90;999.90;;;28.80;89.40;;;;;;4953046;28;20113;-71
2023/07/05 12:22:10;;;;;;;1999.90;999.90;;;28.90;89.10;;;;;;4967262;28;20381;-71
2023/07/05 12:24:50;;;;;;;1999.90;999.90;;;29.70;90.00;;;;;;4953843;28;20035;-71
2023/07/05 12:27:34;;;;;;;1999.90;999.90;;;30.00;89.80;;;;;;4949141;28;20124;-70
2023/07/05 12:30:05;;;;;;;1999.90;999.90;;;29.50;89.50;;;;;;4949952;28;20035;-71
2023/07/05 12:32:31;;;;;;;1999.90;999.90;;;28.30;88.20;;;;;;4956341;28;20030;-71
2023/07/05 12:35:12;;;;;;;1999.90;999.90;;;28.50;90.50;;;;;;4956841;28;20109;-71
2023/07/05 12:37:38;;;;;;;1999.90;999.90;;;28.40;89.40;;;;;;4938164;28;20041;-71
2023/07/05 12:40:12;;;;;;;1999.90;999.90;;;27.90;91.30;;;;;;4951833;28;20508;-70
2023/07/05 12:43:04;;;;;;;1999.90;999.90;;;28.40;93.50;;;;;;4952885;28;20035;-71
2023/07/05 12:45:35;;;;;;;1999.90;999.90;;;27.70;91.00;;;;;;4953475;28;20039;-71
2023/07/05 12:48:29;;;;;;;1999.90;999.90;;;27.30;91.00;;;;;;4950818;28;20486;-72
2023/07/05 12:51:22;;;;;;;1999.90;999.90;;;27.10;91.10;;;;;;4948629;29;20039;-73
2023/07/05 12:53:59;;;;;;;1999.90;999.90;;;27.00;93.30;;;;;;4953293;28;20057;-72
2023/07/05 12:56:37;;;;;;;1999.90;999.90;;;27.10;97.10;;;;;;4952492;29;20034;-72
2023/07/05 12:59:06;;;;;;;1999.90;999.90;;;27.40;97.20;;;;;;4951529;29;20046;-72
2023/07/05 13:01:37;;;;;;;1999.90;999.90;;;28.00;96.80;;;;;;4934098;29;20031;-72
2023/07/05 13:04:16;;;;;;;1999.90;999.90;;;28.20;96.00;;;;;;4953833;28;20154;-71
2023/07/05 13:06:42;;;;;;;1999.90;999.90;;;28.70;96.50;;;;;;4942637;29;20036;-70
2023/07/05 13:09:08;;;;;;;1999.90;999.90;;;28.70;95.80;;;;;;4957144;28;20034;-71
2023/07/05 13:11:34;;;;;;;1999.90;999.90;;;28.90;95.70;;;;;;4957610;28;20027;-71
2023/07/05 13:14:01;;;;;;;1999.90;999.90;;;28.00;96.00;;;;;;4951651;29;20028;-71
2023/07/05 13:16:32;;;;;;;1999.90;999.90;;;27.60;97.00;;;;;;4951459;28;20034;-71
2023/07/05 13:19:06;;;;;;;1999.90;999.90;;;27.90;97.30;;;;;;4950876;28;20397;-72
2023/07/05 13:21:42;;;;;;;1999.90;999.90;;;28.30;96.50;;;;;;4930629;29;20049;-71
2023/07/05 13:24:26;;;;;;;1999.90;999.90;;;29.00;96.20;;;;;;4951571;28;20031;-72
2023/07/05 13:26:52;;;;;;;1999.90;999.90;;;29.50;93.10;;;;;;4952442;28;20043;-72
2023/07/05 13:29:35;;;;;;;1999.90;999.90;;;29.30;93.00;;;;;;4952446;28;20114;-72
2023/07/05 13:32:02;;;;;;;1999.90;999.90;;;29.20;92.20;;;;;;4932657;29;20508;-72
2023/07/05 13:34:27;;;;;;;1999.90;999.90;;;29.50;93.50;;;;;;4949797;28;20138;-71
2023/07/05 13:37:07;;;;;;;1999.90;999.90;;;30.50;92.10;;;;;;4951573;28;20037;-73
2023/07/05 13:39:35;;;;;;;1999.90;999.90;;;30.30;91.50;;;;;;4932798;29;20083;-71
2023/07/05 13:42:03;;;;;;;1999.90;999.90;;;30.20;90.00;;;;;;4948686;28;20520;-71
2023/07/05 13:44:28;;;;;;;1999.90;999.90;;;30.20;92.40;;;;;;4938510;29;20097;-72
2023/07/05 13:46:54;;;;;;;1999.90;999.90;;;31.10;90.70;;;;;;4949430;28;20517;-72
2023/07/05 13:49:20;;;;;;;1999.90;999.90;;;30.80;90.80;;;;;;4951988;28;20098;-72
2023/07/05 13:51:54;;;;;;;1999.90;999.90;;;31.00;90.40;;;;;;4931325;29;20072;-73
2023/07/05 13:54:20;;;;;;;1999.90;999.90;;;30.40;90.60;;;;;;4949172;28;20401;-72
2023/07/05 13:56:46;;;;;;;1999.90;999.90;;;30.10;91.40;;;;;;4956675;28;20043;-71
2023/07/05 13:59:16;;;;;;;1999.90;999.90;;;30.70;91.20;;;;;;4958539;28;20063;-71
2023/07/05 14:01:43;;;;;;;1999.90;999.90;;;30.70;90.40;;;;;;4950509;28;20035;-74
2023/07/05 14:04:12;;;;;;;1999.90;999.90;;;30.60;90.90;;;;;;4957529;28;20031;-72
2023/07/05 14:06:39;;;;;;;1999.90;999.90;;;30.40;91.40;;;;;;4951436;28;20035;-71
2023/07/05 14:09:05;;;;;;;1999.90;999.90;;;31.20;90.70;;;;;;4932173;29;20031;-72
2023/07/05 14:11:42;;;;;;;1999.90;999.90;;;31.10;90.70;;;;;;4950993;28;20150;-72
2023/07/05 14:14:13;;;;;;;1999.90;999.90;;;30.10;91.10;;;;;;4933955;29;20027;-71
2023/07/05 14:16:39;;;;;;;1999.90;999.90;;;30.00;91.30;;;;;;4949212;29;20106;-72
2023/07/05 14:19:05;;;;;;;1999.90;999.90;;;30.40;91.30;;;;;;4952326;28;20042;-71
2023/07/05 14:21:35;;;;;;;1999.90;999.90;;;30.80;91.60;;;;;;4950741;29;20043;-72
2023/07/05 14:24:04;;;;;;;1999.90;999.90;;;29.90;90.40;;;;;;4931191;29;20516;-72
2023/07/05 14:26:32;;;;;;;1999.90;999.90;;;30.10;91.20;;;;;;4951274;29;20031;-72
2023/07/05 14:28:59;;;;;;;1999.90;999.90;;;30.80;90.50;;;;;;4948627;28;20027;-71
2023/07/05 14:31:25;;;;;;;1999.90;999.90;;;30.40;90.60;;;;;;4950456;29;20370;-73
2023/07/05 14:33:51;;;;;;;1999.90;999.90;;;29.40;90.60;;;;;;4952412;28;20036;-72
2023/07/05 14:36:18;;;;;;;1999.90;999.90;;;29.60;91.70;;;;;;4951004;28;20460;-72
2023/07/05 14:38:45;;;;;;;1999.90;999.90;;;30.20;90.60;;;;;;4950559;29;20474;-72
2023/07/05 14:41:23;;;;;;;1999.90;999.90;;;30.80;89.80;;;;;;4951150;28;20083;-73
2023/07/05 14:43:52;;;;;;;1999.90;999.90;;;30.10;90.20;;;;;;4953322;28;20048;-73
2023/07/05 14:46:17;;;;;;;1999.90;999.90;;;29.90;90.80;;;;;;4953864;28;20053;-71
2023/07/05 14:48:43;;;;;;;1999.90;999.90;;;28.30;91.30;;;;;;4936718;28;20035;-72
2023/07/05 14:51:14;;;;;;;1999.90;999.90;;;28.60;92.40;;;;;;4956722;28;20117;-73
2023/07/05 14:53:42;;;;;;;1999.90;999.90;;;29.60;91.70;;;;;;4951370;29;20051;-72
2023/07/05 14:56:08;;;;;;;1999.90;999.90;;;29.70;91.90;;;;;;4954298;28;20122;-73
2023/07/05 14:58:34;;;;;;;1999.90;999.90;;;29.30;92.30;;;;;;4952019;29;20020;-72
2023/07/05 15:00:59;;;;;;;1999.90;999.90;;;29.50;92.40;;;;;;4951263;28;20085;-72
2023/07/05 15:03:28;;;;;;;1999.90;999.90;;;29.10;93.00;;;;;;4957232;28;20023;-72
2023/07/05 15:05:55;;;;;;;1999.90;999.90;;;29.20;93.00;;;;;;4937420;28;20035;-71
2023/07/05 15:08:22;;;;;;;1999.90;999.90;;;30.00;92.20;;;;;;4959062;28;20052;-73
2023/07/05 15:10:49;;;;;;;1999.90;999.90;;;29.20;91.90;;;;;;4937704;29;20019;-73
2023/07/05 15:13:14;;;;;;;1999.90;999.90;;;29.20;91.70;;;;;;4955047;29;20027;-73
2023/07/05 15:15:42;;;;;;;1999.90;999.90;;;29.90;92.20;;;;;;4937692;29;20053;-72
2023/07/05 15:18:07;;;;;;;1999.90;999.90;;;28.90;91.60;;;;;;4955655;29;20515;-71
2023/07/05 15:20:35;;;;;;;1999.90;999.90;;;29.20;92.50;;;;;;4970689;28;20031;-72
2023/07/05 15:23:01;;;;;;;1999.90;999.90;;;29.10;93.40;;;;;;4955676;28;20113;-73
2023/07/05 15:25:27;;;;;;;1999.90;999.90;;;28.70;94.40;;;;;;4954426;28;20039;-71
2023/07/05 15:27:53;;;;;;;1999.90;999.90;;;29.00;95.10;;;;;;4955021;29;20032;-72
2023/07/05 15:30:20;;;;;;;1999.90;999.90;;;28.40;96.10;;;;;;4970351;28;20409;-73
2023/07/05 15:32:46;;;;;;;1999.90;999.90;;;27.50;96.10;;;;;;4971943;28;20110;-72
2023/07/05 15:35:17;;;;;;;1999.90;999.90;;;26.90;98.20;;;;;;4955034;29;20546;-72
2023/07/05 15:37:43;;;;;;;1999.90;999.90;;;27.00;98.10;;;;;;4955115;29;20137;-71
2023/07/05 15:40:10;;;;;;;1999.90;999.90;;;26.80;98.00;;;;;;4955358;28;20046;-72
2023/07/05 15:42:36;;;;;;;1999.90;999.90;;;26.10;99.90;;;;;;4937008;29;20031;-71
2023/07/05 15:45:04;;;;;;;1999.90;999.90;;;25.20;99.90;;;;;;4938926;28;20036;-71
2023/07/05 15:47:30;;;;;;;1999.90;999.90;;;24.50;99.90;;;;;;4958274;28;20039;-70
2023/07/05 15:49:56;;;;;;;1999.90;999.90;;;24.10;99.90;;;;;;4946173;28;20091;-69
2023/07/05 15:52:22;;;;;;;1999.90;999.90;;;23.90;99.90;;;;;;4947911;29;20426;-69
2023/07/05 15:54:48;;;;;;;1999.90;999.90;;;23.50;99.90;;;;;;4956111;28;20028;-69
2023/07/05 15:57:15;;;;;;;1999.90;999.90;;;23.00;99.90;;;;;;4975766;28;20094;-70
2023/07/05 15:59:46;;;;;;;1999.90;999.90;;;22.90;99.90;;;;;;4976017;28;20019;-68
2023/07/05 16:02:14;;;;;;;1999.90;999.90;;;22.80;99.90;;;;;;4956950;28;20079;-69
2023/07/05 16:04:41;;;;;;;1999.90;999.90;;;23.10;99.90;;;;;;4956976;28;20027;-68
2023/07/05 16:07:07;;;;;;;1999.90;999.90;;;23.00;99.90;;;;;;4956682;28;20030;-70
2023/07/05 16:09:33;;;;;;;1999.90;999.90;;;23.00;99.90;;;;;;4956456;28;20039;-70
2023/07/05 16:11:58;;;;;;;1999.90;999.90;;;22.80;99.90;;;;;;4954214;28;20055;-70
2023/07/05 16:14:24;;;;;;;1999.90;999.90;;;22.50;99.90;;;;;;4938585;29;20046;-70
2023/07/05 16:16:50;;;;;;;1999.90;999.90;;;22.60;99.90;;;;;;4956145;28;20027;-69
2023/07/05 16:19:17;;;;;;;1999.90;999.90;;;22.30;99.90;;;;;;4953748;28;20054;-70
2023/07/05 16:21:43;;;;;;;1999.90;999.90;;;22.30;99.90;;;;;;4953079;28;20028;-70
2023/07/05 16:24:11;;;;;;;1999.90;999.90;;;22.40;99.90;;;;;;4956542;29;20078;-69
2023/07/05 16:26:37;;;;;;;1999.90;999.90;;;22.50;99.90;;;;;;4956043;29;20050;-69
2023/07/05 16:29:03;;;;;;;1999.90;999.90;;;22.50;99.90;;;;;;4971051;28;20027;-70
2023/07/05 16:31:28;;;;;;;1999.90;999.90;;;22.30;99.90;;;;;;4938968;29;20629;-70
2023/07/05 16:33:54;;;;;;;1999.90;999.90;;;22.30;99.90;;;;;;4956451;29;20038;-70
2023/07/05 16:36:20;;;;;;;1999.90;999.90;;;22.30;99.90;;;;;;4955511;28;20027;-70
2023/07/05 16:38:46;;;;;;;1999.90;999.90;;;22.60;99.90;;;;;;4954141;29;20031;-68
2023/07/05 16:41:13;;;;;;;1999.90;999.90;;;22.30;99.90;;;;;;4956082;29;20027;-70
2023/07/05 16:43:39;;;;;;;1999.90;999.90;;;22.40;99.90;;;;;;4956240;29;20039;-69
2023/07/05 16:46:05;;;;;;;1999.90;999.90;;;22.20;99.90;;;;;;4955985;28;20520;-70
2023/07/05 16:48:34;;;;;;;1999.90;999.90;;;22.10;99.90;;;;;;4955513;29;20460;-69
2023/07/05 16:51:01;;;;;;;1999.90;999.90;;;21.90;99.90;;;;;;4953816;28;20107;-70
2023/07/05 16:53:27;;;;;;;1999.90;999.90;;;21.80;99.90;;;;;;4953861;28;20027;-70
2023/07/05 16:55:57;;;;;;;1999.90;999.90;;;21.60;99.90;;;;;;4955109;28;20166;-69
2023/07/05 16:58:26;;;;;;;1999.90;999.90;;;22.00;99.90;;;;;;4955482;29;20035;-70
2023/07/05 17:01:00;;;;;;;1999.90;999.90;;;21.90;99.90;;;;;;4938300;29;20097;-69
2023/07/05 17:03:27;;;;;;;1999.90;999.90;;;21.90;99.90;;;;;;4951151;28;20031;-69
2023/07/05 17:05:53;;;;;;;1999.90;999.90;;;21.80;99.90;;;;;;4955803;29;20450;-70
2023/07/05 17:08:19;;;;;;;1999.90;999.90;;;21.90;99.90;;;;;;4969971;28;20442;-69
2023/07/05 17:10:45;;;;;;;1999.90;999.90;;;21.90;99.90;;;;;;4955568;28;20019;-69
2023/07/05 17:13:11;;;;;;;1999.90;999.90;;;21.40;99.90;;;;;;4955541;29;20054;-70
2023/07/05 17:15:37;;;;;;;1999.90;999.90;;;21.20;99.90;;;;;;4956040;29;20388;-69
2023/07/05 17:18:03;;;;;;;1999.90;999.90;;;21.00;99.90;;;;;;4950777;28;20035;-69
2023/07/05 17:20:29;;;;;;;1999.90;999.90;;;21.20;99.90;;;;;;4970342;28;20106;-70
2023/07/05 17:22:55;;;;;;;1999.90;999.90;;;21.20;99.90;;;;;;4954508;29;20038;-69
2023/07/05 17:25:20;;;;;;;1999.90;999.90;;;21.10;99.90;;;;;;4955480;29;20077;-69
2023/07/05 17:27:48;;;;;;;1999.90;999.90;;;21.00;99.90;;;;;;4955026;29;20134;-69
2023/07/05 17:30:14;;;;;;;1999.90;999.90;;;21.10;99.90;;;;;;4938030;29;20023;-69
2023/07/05 17:32:40;;;;;;;1999.90;999.90;;;21.10;99.90;;;;;;4955207;29;20485;-70
2023/07/05 17:35:07;;;;;;;1999.90;999.90;;;20.90;99.90;;;;;;4955269;29;20144;-69
2023/07/05 17:37:34;;;;;;;1999.90;999.90;;;20.70;99.90;;;;;;4955312;29;20020;-69
2023/07/05 17:40:00;;;;;;;1999.90;999.90;;;20.50;99.90;;;;;;4954801;29;20481;-69
2023/07/05 17:42:25;;;;;;;1999.90;999.90;;;20.20;99.90;;;;;;4955317;29;20017;-70
2023/07/05 17:44:51;;;;;;;1999.90;999.90;;;20.00;99.90;;;;;;4955209;29;20450;-70
2023/07/05 17:47:17;;;;;;;1999.90;999.90;;;20.00;99.90;;;;;;4954874;29;20130;-70
2023/07/05 17:49:44;;;;;;;1999.90;999.90;;;20.00;99.90;;;;;;4937638;29;20119;-69
2023/07/05 17:52:09;;;;;;;1999.90;999.90;;;20.00;99.90;;;;;;4969797;28;20027;-70
2023/07/05 17:54:35;;;;;;;1999.90;999.90;;;20.10;99.90;;;;;;4955332;29;20029;-69
2023/07/05 17:57:01;;;;;;;1999.90;999.90;;;20.10;99.90;;;;;;4955193;29;20104;-69
2023/07/05 17:59:27;;;;;;;1999.90;999.90;;;20.10;99.90;;;;;;4954652;29;20028;-70